createdAt,value
2023-04-22T00:00:15.924Z,7.47
2023-04-22T00:02:44.821Z,7.50
2023-04-22T00:05:15.102Z,7.63
2023-04-22T00:07:44.604Z,7.28
2023-04-22T00:10:12.999Z,7.30
2023-04-22T00:12:40.866Z,6.80
2023-04-22T00:15:11.982Z,7.13
2023-04-22T00:17:40.245Z,7.53
2023-04-22T00:20:11.143Z,7.60
2023-04-22T00:22:39.120Z,7.00
2023-04-22T00:25:07.949Z,6.80
2023-04-22T00:27:36.016Z,6.90
2023-04-22T00:30:03.981Z,7.85
2023-04-22T00:32:33.213Z,6.53
2023-04-22T00:35:01.470Z,7.88
2023-04-22T00:37:29.562Z,6.93
2023-04-22T00:39:58.098Z,7.70
2023-04-22T00:42:27.286Z,6.55
2023-04-22T00:44:55.188Z,7.03
2023-04-22T00:47:27.024Z,6.88
2023-04-22T00:49:56.544Z,7.45
2023-04-22T00:52:24.495Z,7.78
2023-04-22T00:54:52.772Z,7.15
2023-04-22T00:57:20.594Z,7.47
2023-04-22T00:59:48.867Z,6.88
2023-04-22T01:02:17.212Z,7.80
2023-04-22T01:04:45.488Z,7.70
2023-04-22T01:07:14.904Z,7.25
2023-04-22T01:09:42.850Z,7.28
2023-04-22T01:12:11.140Z,7.57
2023-04-22T01:14:39.068Z,8.43
2023-04-22T01:17:10.793Z,8.20
2023-04-22T01:19:39.053Z,7.80
2023-04-22T01:22:07.699Z,7.75
2023-04-22T01:24:37.153Z,7.85
2023-04-22T01:27:05.290Z,7.78
2023-04-22T01:29:33.442Z,8.18
2023-04-22T01:32:02.258Z,7.78
2023-04-22T01:34:31.379Z,7.72
2023-04-22T01:36:59.223Z,8.10
2023-04-22T01:39:27.197Z,7.80
2023-04-22T01:41:56.915Z,7.88
2023-04-22T01:44:24.892Z,7.60
2023-04-22T01:46:52.870Z,7.80
2023-04-22T01:49:21.203Z,7.03
2023-04-22T01:51:49.132Z,7.55
2023-04-22T01:54:17.346Z,7.15
2023-04-22T01:56:52.431Z,7.70
2023-04-22T01:59:22.161Z,8.07
2023-04-22T02:01:51.089Z,8.05
2023-04-22T02:04:20.012Z,8.40
2023-04-22T02:06:48.020Z,8.10
2023-04-22T02:09:16.223Z,7.65
2023-04-22T02:11:44.868Z,8.15
2023-04-22T02:14:13.684Z,8.10
2023-04-22T02:16:43.578Z,8.02
2023-04-22T02:19:13.723Z,8.68
2023-04-22T02:21:41.643Z,8.18
2023-04-22T02:24:10.909Z,8.40
2023-04-22T02:26:39.140Z,8.07
2023-04-22T02:29:07.032Z,8.23
2023-04-22T02:31:35.058Z,8.48
2023-04-22T02:34:04.973Z,8.13
2023-04-22T02:36:34.596Z,8.48
2023-04-22T02:39:03.519Z,8.10
2023-04-22T02:41:31.639Z,8.20
2023-04-22T02:43:59.663Z,8.43
2023-04-22T02:46:28.613Z,8.75
2023-04-22T02:48:57.085Z,8.57
2023-04-22T02:51:26.948Z,7.93
2023-04-22T02:53:55.050Z,8.13
2023-04-22T02:56:23.380Z,8.32
2023-04-22T02:58:51.313Z,8.35
2023-04-22T03:01:19.589Z,7.90
2023-04-22T03:03:47.880Z,8.25
2023-04-22T03:08:51.540Z,8.40
2023-04-22T03:11:19.489Z,7.90
2023-04-22T03:13:47.663Z,8.80
2023-04-22T03:16:15.789Z,8.23
2023-04-22T03:18:43.900Z,9.18
2023-04-22T03:21:12.182Z,9.23
2023-04-22T03:23:41.862Z,9.27
2023-04-22T03:26:12.124Z,8.82
2023-04-22T03:28:41.270Z,9.10
2023-04-22T03:31:09.141Z,8.60
2023-04-22T03:33:37.172Z,9.40
2023-04-22T03:36:12.729Z,9.07
2023-04-22T03:38:41.103Z,9.10
2023-04-22T03:41:09.577Z,9.80
2023-04-22T03:43:47.033Z,9.30
2023-04-22T03:46:15.333Z,9.20
2023-04-22T03:48:50.935Z,9.48
2023-04-22T03:51:30.384Z,9.20
2023-04-22T03:54:00.563Z,10.07
2023-04-22T03:56:31.396Z,9.20
2023-04-22T03:59:02.909Z,9.38
2023-04-22T04:01:31.295Z,9.48
2023-04-22T04:04:02.806Z,8.85
2023-04-22T04:06:39.643Z,9.55
2023-04-22T04:09:07.851Z,10.27
2023-04-22T04:11:36.150Z,9.70
2023-04-22T04:14:06.025Z,10.15
2023-04-22T04:16:43.356Z,9.20
2023-04-22T04:19:16.903Z,10.90
2023-04-22T04:21:45.479Z,10.10
2023-04-22T04:24:13.434Z,10.43
2023-04-22T04:26:46.933Z,11.38
2023-04-22T04:29:21.563Z,10.45
2023-04-22T04:32:00.637Z,10.93
2023-04-22T04:34:29.537Z,10.52
2023-04-22T04:36:57.868Z,10.05
2023-04-22T04:39:33.793Z,10.07
2023-04-22T04:42:04.099Z,10.15
2023-04-22T04:44:38.371Z,10.77
2023-04-22T04:47:07.227Z,10.75
2023-04-22T04:49:40.842Z,10.82
2023-04-22T04:52:11.916Z,10.57
2023-04-22T04:54:40.337Z,10.35
2023-04-22T04:57:10.259Z,10.43
2023-04-22T04:59:41.278Z,9.60
2023-04-22T05:02:10.210Z,10.07
2023-04-22T05:04:38.527Z,9.55
2023-04-22T05:07:06.826Z,9.68
2023-04-22T05:09:38.207Z,10.88
2023-04-22T05:12:07.547Z,10.15
2023-04-22T05:14:36.400Z,10.50
2023-04-22T05:17:05.916Z,10.85
2023-04-22T05:19:33.754Z,11.77
2023-04-22T05:22:02.843Z,10.98
2023-04-22T05:24:31.553Z,11.38
2023-04-22T05:27:00.603Z,10.93
2023-04-22T05:29:30.087Z,11.30
2023-04-22T05:31:58.367Z,10.98
2023-04-22T05:34:28.316Z,10.82
2023-04-22T05:36:56.816Z,11.32
2023-04-22T05:39:26.390Z,11.90
2023-04-22T05:41:55.339Z,10.63
2023-04-22T05:44:24.212Z,11.73
2023-04-22T05:46:52.393Z,11.65
2023-04-22T05:49:21.397Z,14.20
2023-04-22T05:52:05.699Z,15.10
2023-04-22T05:54:44.625Z,14.73
2023-04-22T05:57:13.517Z,15.10
2023-04-22T05:59:41.931Z,15.98
2023-04-22T06:02:10.592Z,15.93
2023-04-22T06:04:39.333Z,19.45
2023-04-22T06:07:09.121Z,18.50
2023-04-22T06:09:37.206Z,19.65
2023-04-22T06:12:06.248Z,20.35
2023-04-22T06:14:34.234Z,20.73
2023-04-22T06:17:02.601Z,20.33
2023-04-22T06:19:30.526Z,20.20
2023-04-22T06:21:58.692Z,19.83
2023-04-22T06:24:28.101Z,20.83
2023-04-22T06:26:56.448Z,19.10
2023-04-22T06:29:24.685Z,21.15
2023-04-22T06:31:53.576Z,21.00
2023-04-22T06:34:21.789Z,24.00
2023-04-22T06:36:51.300Z,23.90
2023-04-22T06:39:19.424Z,21.38
2023-04-22T06:42:09.000Z,25.90
2023-04-22T06:44:47.932Z,25.40
2023-04-22T06:47:22.473Z,24.50
2023-04-22T06:50:00.428Z,27.23
2023-04-22T06:52:37.197Z,28.85
2023-04-22T06:55:06.029Z,30.48
2023-04-22T06:57:35.523Z,29.75
2023-04-22T07:00:04.503Z,28.95
2023-04-22T07:02:33.601Z,31.08
2023-04-22T07:05:01.642Z,30.52
2023-04-22T07:07:30.498Z,29.40
2023-04-22T07:09:58.868Z,28.75
2023-04-22T07:12:37.742Z,28.20
2023-04-22T07:15:06.661Z,29.40
2023-04-22T07:17:35.062Z,28.13
2023-04-22T07:20:03.088Z,25.90
2023-04-22T07:22:31.034Z,25.98
2023-04-22T07:24:59.210Z,27.45
2023-04-22T07:27:27.261Z,26.15
2023-04-22T07:29:56.638Z,25.73
2023-04-22T07:32:24.872Z,26.00
2023-04-22T07:34:52.943Z,25.17
2023-04-22T07:37:22.963Z,25.00
2023-04-22T07:39:52.561Z,24.23
2023-04-22T07:42:20.643Z,22.45
2023-04-22T07:44:48.727Z,21.33
2023-04-22T07:47:18.202Z,21.60
2023-04-22T07:49:46.470Z,21.08
2023-04-22T07:52:14.560Z,20.67
2023-04-22T07:54:42.507Z,20.08
2023-04-22T07:57:10.583Z,20.63
2023-04-22T07:59:39.115Z,21.45
2023-04-22T08:02:07.729Z,20.38
2023-04-22T08:04:37.583Z,19.75
2023-04-22T08:07:17.106Z,20.35
2023-04-22T08:09:56.075Z,19.50
2023-04-22T08:12:24.845Z,19.65
2023-04-22T08:14:53.007Z,18.58
2023-04-22T08:17:22.245Z,18.42
2023-04-22T08:19:53.363Z,17.77
2023-04-22T08:22:22.903Z,18.10
2023-04-22T08:24:51.550Z,17.02
2023-04-22T08:27:20.386Z,18.13
2023-04-22T08:29:50.843Z,16.65
2023-04-22T08:32:20.123Z,17.15
2023-04-22T08:37:20.238Z,17.17
2023-04-22T08:39:48.609Z,16.67
2023-04-22T08:42:22.452Z,16.13
2023-04-22T08:44:51.209Z,16.33
2023-04-22T08:47:20.032Z,16.65
2023-04-22T08:49:48.333Z,17.00
2023-04-22T08:52:16.269Z,16.73
2023-04-22T08:54:46.114Z,16.35
2023-04-22T08:57:14.871Z,15.40
2023-04-22T08:59:43.042Z,15.60
2023-04-22T09:02:15.699Z,15.50
2023-04-22T09:04:44.333Z,15.50
2023-04-22T09:07:13.746Z,15.20
2023-04-22T09:09:42.257Z,14.40
2023-04-22T09:12:11.748Z,14.05
2023-04-22T09:14:40.721Z,13.90
2023-04-22T09:17:08.903Z,14.52
2023-04-22T09:19:37.461Z,13.85
2023-04-22T09:22:05.954Z,13.35
2023-04-22T09:24:33.936Z,12.50
2023-04-22T09:27:03.880Z,12.57
2023-04-22T09:29:33.362Z,13.10
2023-04-22T09:32:01.550Z,12.65
2023-04-22T09:34:29.806Z,12.27
2023-04-22T09:36:57.826Z,11.77
2023-04-22T09:39:25.874Z,10.70
2023-04-22T09:41:56.655Z,10.38
2023-04-22T09:44:28.589Z,10.25
2023-04-22T09:46:58.167Z,10.15
2023-04-22T09:49:28.436Z,9.85
2023-04-22T09:51:58.067Z,9.57
2023-04-22T09:54:26.424Z,9.95
2023-04-22T09:56:54.702Z,10.27
2023-04-22T09:59:23.852Z,8.75
2023-04-22T10:01:55.305Z,8.20
2023-04-22T10:04:25.737Z,9.07
2023-04-22T10:06:54.408Z,8.85
2023-04-22T10:09:24.091Z,8.48
2023-04-22T10:11:54.109Z,8.52
2023-04-22T10:14:22.758Z,9.13
2023-04-22T10:16:52.176Z,7.90
2023-04-22T10:19:22.094Z,8.45
2023-04-22T10:21:55.117Z,8.48
2023-04-22T10:24:23.321Z,8.73
2023-04-22T10:26:56.246Z,8.13
2023-04-22T10:29:43.088Z,6.63
2023-04-22T10:32:26.904Z,7.35
2023-04-22T10:35:13.332Z,6.70
2023-04-22T10:37:49.628Z,7.55
2023-04-22T10:40:22.983Z,7.63
2023-04-22T10:42:52.957Z,7.93
2023-04-22T10:45:31.266Z,8.93
2023-04-22T10:48:21.041Z,9.43
2023-04-22T10:50:51.531Z,10.60
2023-04-22T10:53:41.101Z,10.15
2023-04-22T10:56:19.835Z,9.85
2023-04-22T10:58:48.538Z,10.25
2023-04-22T11:01:18.978Z,9.63
2023-04-22T11:03:48.484Z,10.57
2023-04-22T11:06:18.675Z,9.75
2023-04-22T11:08:49.505Z,10.55
2023-04-22T11:11:23.650Z,10.02
2023-04-22T11:13:54.258Z,10.65
2023-04-22T11:16:23.862Z,11.13
2023-04-22T11:18:54.008Z,10.73
2023-04-22T11:21:23.481Z,10.20
2023-04-22T11:23:53.671Z,10.70
2023-04-22T11:26:35.424Z,11.13
2023-04-22T11:29:04.853Z,10.82
2023-04-22T11:31:36.215Z,10.40
2023-04-22T11:34:05.656Z,10.48
2023-04-22T11:36:33.790Z,11.38
2023-04-22T11:39:22.091Z,10.57
2023-04-22T11:41:58.747Z,11.02
2023-04-22T11:44:32.385Z,10.10
2023-04-22T11:49:41.438Z,9.13
2023-04-22T11:52:12.992Z,8.93
2023-04-22T11:58:04.588Z,8.27
2023-04-22T12:00:47.977Z,7.93
2023-04-22T12:03:25.843Z,8.23
2023-04-22T12:05:57.687Z,7.32
2023-04-22T12:08:27.773Z,8.48
2023-04-22T12:11:00.477Z,8.70
2023-04-22T12:13:31.321Z,8.85
2023-04-22T12:16:02.611Z,8.88
2023-04-22T12:18:32.311Z,9.10
2023-04-22T12:21:12.828Z,8.98
2023-04-22T12:23:44.415Z,8.95
2023-04-22T12:26:15.255Z,9.30
2023-04-22T12:28:45.766Z,10.35
2023-04-22T12:31:16.549Z,11.52
2023-04-22T12:33:45.641Z,11.93
2023-04-22T12:36:14.094Z,11.02
2023-04-22T12:38:42.608Z,11.38
2023-04-22T12:41:10.990Z,12.25
2023-04-22T12:43:40.364Z,11.65
2023-04-22T12:46:09.811Z,12.07
2023-04-22T12:48:38.237Z,12.18
2023-04-22T12:51:06.699Z,12.35
2023-04-22T12:53:35.215Z,12.15
2023-04-22T12:56:03.253Z,12.77
2023-04-22T12:58:31.309Z,12.50
2023-04-22T13:01:05.628Z,12.93
2023-04-22T13:03:36.595Z,12.65
2023-04-22T13:06:05.668Z,12.63
2023-04-22T13:08:34.924Z,12.43
2023-04-22T13:11:05.402Z,13.35
2023-04-22T13:13:34.203Z,12.25
2023-04-22T13:16:09.096Z,12.35
2023-04-22T13:18:41.519Z,12.93
2023-04-22T13:21:13.981Z,12.88
2023-04-22T13:23:44.520Z,12.07
2023-04-22T13:26:16.780Z,12.63
2023-04-22T13:28:44.861Z,12.65
2023-04-22T13:31:18.497Z,13.18
2023-04-22T13:33:49.510Z,14.77
2023-04-22T13:36:20.728Z,13.98
2023-04-22T13:38:57.489Z,13.63
2023-04-22T13:41:26.212Z,13.30
2023-04-22T13:43:56.249Z,13.30
2023-04-22T13:46:32.893Z,13.45
2023-04-22T13:49:03.174Z,14.80
2023-04-22T13:51:42.487Z,15.13
2023-04-22T13:54:26.667Z,14.45
2023-04-22T13:57:06.174Z,14.50
2023-04-22T13:59:43.408Z,15.10
2023-04-22T14:02:20.701Z,14.32
2023-04-22T14:04:51.386Z,14.48
2023-04-22T14:07:20.304Z,16.08
2023-04-22T14:09:49.649Z,14.77
2023-04-22T14:12:21.055Z,15.90
2023-04-22T14:14:50.505Z,14.35
2023-04-22T14:17:22.305Z,14.13
2023-04-22T14:19:54.676Z,14.45
2023-04-22T14:22:27.252Z,14.23
2023-04-22T14:25:02.656Z,14.45
2023-04-22T14:27:35.117Z,15.68
2023-04-22T14:30:14.365Z,15.05
2023-04-22T14:32:52.126Z,14.80
2023-04-22T14:35:21.584Z,14.23
2023-04-22T14:37:49.901Z,14.13
2023-04-22T14:40:20.354Z,14.32
2023-04-22T14:42:49.142Z,14.38
2023-04-22T14:45:26.569Z,13.90
2023-04-22T14:48:04.588Z,63.22
2023-04-22T14:50:34.070Z,16.92
2023-04-22T14:53:02.300Z,14.68
2023-04-22T14:55:32.442Z,16.63
2023-04-22T14:58:01.224Z,26.30
2023-04-22T15:00:30.474Z,16.33
2023-04-22T15:03:01.131Z,14.20
2023-04-22T15:05:29.973Z,13.35
2023-04-22T15:08:00.291Z,12.93
2023-04-22T15:10:32.175Z,12.57
2023-04-22T15:13:00.393Z,12.93
2023-04-22T15:15:28.275Z,13.00
2023-04-22T15:17:56.359Z,12.43
2023-04-22T15:20:25.852Z,13.45
2023-04-22T15:22:54.867Z,13.52
2023-04-22T15:25:24.646Z,13.70
2023-04-22T15:27:56.642Z,13.00
2023-04-22T15:30:25.385Z,13.27
2023-04-22T15:32:53.212Z,14.23
2023-04-22T15:35:21.179Z,13.80
2023-04-22T15:37:50.543Z,14.25
2023-04-22T15:40:18.727Z,13.88
2023-04-22T15:42:46.682Z,13.57
2023-04-22T15:45:14.613Z,13.45
2023-04-22T15:47:42.688Z,14.05
2023-04-22T15:50:11.782Z,13.45
2023-04-22T15:52:40.747Z,15.50
2023-04-22T15:55:10.898Z,15.05
2023-04-22T15:57:39.156Z,15.02
2023-04-22T16:00:12.634Z,14.75
2023-04-22T16:02:44.988Z,13.93
2023-04-22T16:05:16.183Z,14.32
2023-04-22T16:07:44.568Z,15.68
2023-04-22T16:10:14.588Z,14.98
2023-04-22T16:12:43.141Z,15.30
2023-04-22T16:15:12.017Z,14.77
2023-04-22T16:17:40.325Z,14.68
2023-04-22T16:20:09.993Z,15.60
2023-04-22T16:22:38.205Z,14.88
2023-04-22T16:25:07.604Z,15.88
2023-04-22T16:27:38.714Z,15.73
2023-04-22T16:30:08.703Z,15.05
2023-04-22T16:32:37.263Z,14.93
2023-04-22T16:35:06.385Z,15.10
2023-04-22T16:37:36.783Z,16.77
2023-04-22T16:40:21.529Z,16.50
2023-04-22T16:43:03.493Z,16.98
2023-04-22T16:45:40.984Z,17.70
2023-04-22T16:51:13.680Z,17.92
2023-04-22T16:54:02.476Z,18.75
2023-04-22T16:56:34.703Z,17.98
2023-04-22T16:59:21.578Z,19.83
2023-04-22T17:01:51.974Z,20.40
2023-04-22T17:04:26.617Z,21.85
2023-04-22T17:06:56.159Z,22.13
2023-04-22T17:09:31.154Z,23.75
2023-04-22T17:14:41.616Z,24.83
2023-04-22T17:17:12.318Z,26.13
2023-04-22T17:19:40.521Z,24.85
2023-04-22T17:22:08.867Z,23.65
2023-04-22T17:24:37.264Z,24.60
2023-04-22T17:27:22.845Z,23.70
2023-04-22T17:37:05.514Z,24.27
2023-04-22T17:39:33.837Z,23.50
2023-04-22T17:42:02.605Z,24.48
2023-04-22T17:44:33.259Z,23.98
2023-04-22T17:47:21.671Z,23.35
2023-04-22T17:49:59.717Z,25.30
2023-04-22T17:52:28.089Z,25.45
2023-04-22T17:54:57.190Z,25.48
2023-04-22T17:57:28.420Z,24.90
2023-04-22T17:59:56.988Z,24.00
2023-04-22T18:02:26.826Z,24.25
2023-04-22T18:05:04.808Z,24.75
2023-04-22T18:07:32.796Z,26.00
2023-04-22T18:10:00.798Z,27.50
2023-04-22T18:12:30.929Z,26.35
2023-04-22T18:14:59.712Z,28.73
2023-04-22T18:17:29.164Z,30.50
2023-04-22T18:20:09.576Z,30.55
2023-04-22T18:22:42.518Z,29.55
2023-04-22T18:25:17.259Z,29.25
2023-04-22T18:27:50.997Z,28.63
2023-04-22T18:30:24.953Z,27.05
2023-04-22T18:32:57.083Z,25.52
2023-04-22T18:35:37.517Z,23.95
2023-04-22T18:38:08.297Z,24.92
2023-04-22T18:40:41.716Z,24.40
2023-04-22T18:43:19.212Z,25.67
2023-04-22T18:48:41.884Z,25.65
2023-04-22T18:51:18.293Z,25.85
2023-04-22T18:53:49.680Z,26.42
2023-04-22T18:56:22.900Z,27.80
2023-04-22T18:59:04.228Z,27.60
2023-04-22T19:01:40.653Z,26.77
2023-04-22T19:04:21.532Z,27.05
2023-04-22T19:09:57.614Z,26.98
2023-04-22T19:12:58.338Z,27.50
2023-04-22T19:16:02.892Z,28.60
2023-04-22T19:18:39.017Z,26.42
2023-04-22T19:21:30.888Z,26.08
2023-04-22T19:24:03.399Z,27.98
2023-04-22T19:26:40.642Z,28.75
2023-04-22T19:29:12.812Z,29.67
2023-04-22T19:31:48.773Z,31.80
2023-04-22T19:34:20.853Z,31.92
2023-04-22T19:36:52.311Z,30.92
2023-04-22T19:39:23.364Z,30.98
2023-04-22T19:41:56.880Z,32.03
2023-04-22T19:44:33.992Z,32.08
2023-04-22T19:47:10.666Z,33.03
2023-04-22T19:49:59.389Z,32.83
2023-04-22T19:52:30.625Z,32.92
2023-04-22T19:55:09.966Z,35.78
2023-04-22T19:57:39.447Z,34.70
2023-04-22T20:00:11.423Z,34.90
2023-04-22T20:02:49.584Z,35.05
2023-04-22T20:05:36.912Z,35.35
2023-04-22T20:08:17.719Z,34.60
2023-04-22T20:10:49.235Z,33.50
2023-04-22T20:13:17.940Z,37.28
2023-04-22T20:15:46.017Z,37.35
2023-04-22T20:18:14.430Z,36.42
2023-04-22T20:20:45.758Z,35.85
2023-04-22T20:23:15.597Z,37.33
2023-04-22T20:25:45.667Z,36.70
2023-04-22T20:28:14.142Z,37.90
2023-04-22T20:30:42.454Z,36.75
2023-04-22T20:33:12.397Z,39.22
2023-04-22T20:35:41.069Z,39.47
2023-04-22T20:38:12.524Z,38.33
2023-04-22T20:40:42.685Z,39.75
2023-04-22T20:43:10.802Z,39.00
2023-04-22T20:45:38.967Z,38.08
2023-04-22T20:48:08.413Z,39.28
2023-04-22T20:50:36.583Z,37.95
2023-04-22T20:53:05.190Z,39.95
2023-04-22T20:55:36.849Z,40.17
2023-04-22T20:58:08.060Z,40.00
2023-04-22T21:00:36.269Z,39.33
2023-04-22T21:03:06.083Z,39.67
2023-04-22T21:05:41.092Z,40.05
2023-04-22T21:08:21.148Z,43.40
2023-04-22T21:10:50.271Z,41.03
2023-04-22T21:13:46.128Z,42.75
2023-04-22T21:20:13.176Z,42.22
2023-04-22T21:22:43.441Z,43.70
2023-04-22T21:25:12.056Z,44.25
2023-04-22T21:27:39.955Z,43.72
2023-04-22T21:30:08.333Z,44.40
2023-04-22T21:32:40.592Z,47.80
2023-04-22T21:35:08.729Z,46.80
2023-04-22T21:37:37.619Z,48.03
2023-04-22T21:40:07.285Z,48.30
2023-04-22T21:42:35.003Z,49.92
2023-04-22T21:45:02.622Z,51.10
2023-04-22T21:47:30.323Z,50.70
2023-04-22T21:49:57.973Z,53.63
2023-04-22T21:52:25.724Z,54.20
2023-04-22T21:54:54.720Z,54.00
2023-04-22T21:57:22.537Z,52.53
2023-04-22T21:59:50.264Z,54.08
2023-04-22T22:02:18.186Z,55.50
2023-04-22T22:04:46.195Z,56.00
2023-04-22T22:07:14.759Z,56.15
2023-04-22T22:09:44.029Z,56.42
2023-04-22T22:12:13.255Z,56.15
2023-04-22T22:14:41.145Z,55.13
2023-04-22T22:17:09.948Z,52.38
2023-04-22T22:19:38.822Z,52.13
2023-04-22T22:22:06.656Z,50.53
2023-04-22T22:24:34.415Z,51.17
2023-04-22T22:27:02.276Z,50.35
2023-04-22T22:29:31.354Z,49.85
2023-04-22T22:31:58.970Z,47.15
2023-04-22T22:34:26.897Z,47.15
2023-04-22T22:36:54.763Z,45.53
2023-04-22T22:39:22.466Z,46.33
2023-04-22T22:41:50.409Z,47.47
2023-04-22T22:44:18.071Z,46.22
2023-04-22T22:46:47.172Z,46.72
2023-04-22T22:49:14.795Z,44.88
2023-04-22T22:51:42.603Z,45.70
2023-04-22T22:54:10.241Z,44.88
2023-04-22T22:56:37.935Z,45.47
2023-04-22T22:59:05.613Z,43.70
2023-04-22T23:01:33.475Z,45.00
2023-04-22T23:04:02.868Z,42.47
2023-04-22T23:06:32.015Z,44.55
2023-04-22T23:08:59.775Z,43.67
2023-04-22T23:11:27.531Z,45.28
2023-04-22T23:13:56.491Z,45.92
2023-04-22T23:16:24.718Z,45.17
2023-04-22T23:18:53.244Z,46.38
2023-04-22T23:21:22.733Z,45.83
2023-04-22T23:23:51.085Z,47.80
2023-04-22T23:26:18.848Z,46.30
2023-04-22T23:28:46.926Z,46.15
2023-04-22T23:31:15.526Z,48.63
2023-04-22T23:33:43.847Z,47.78
2023-04-22T23:36:13.729Z,50.00
2023-04-22T23:38:43.157Z,51.00
2023-04-22T23:41:10.808Z,47.83
2023-04-22T23:43:38.663Z,48.55
2023-04-22T23:46:06.509Z,49.35
2023-04-22T23:48:34.378Z,51.78
2023-04-22T23:51:02.275Z,50.78
2023-04-22T23:53:29.957Z,52.75
2023-04-22T23:55:59.567Z,53.30
2023-04-22T23:58:27.548Z,54.00
